Terminal Aerodrome Forecast
Issued by NWS

Home | Current Version | Previous Version | Text Only | Print | Product List | Glossary On
Versions: 1 2 3 4 5 6 7 8 9 10 11 12 13 14 15 16 17 18 19 20 21 22 23 24 25 26 27 28 29 30 31 32 33 34 35
195
FTAK31 PANC 260523
TAFAGK
TAF
PAGK 260523Z 2606/2706 VRB03KT P6SM OVC080
     FM261100 18004KT 4SM -SN OVC025
     FM261400 VRB04KT P6SM BKN015
     FM262000 VRB03KT P6SM BKN035
     FM270000 VRB04KT P6SM BKN200=

USA.gov is the U.S. government's official web portal to all federal, state and local government web resources and services.